sensor_id;sensor_type;location;lat;lon;timestamp;P1;durP1;ratioP1;P2;durP2;ratioP2
9720;SDS011;4899;42.644;23.366;2023-06-14T00:01:40;11.10;;;10.07;;
9720;SDS011;4899;42.644;23.366;2023-06-14T00:04:06;11.93;;;10.63;;
9720;SDS011;4899;42.644;23.366;2023-06-14T00:06:33;10.73;;;9.53;;
9720;SDS011;4899;42.644;23.366;2023-06-14T00:08:59;11.17;;;8.00;;
9720;SDS011;4899;42.644;23.366;2023-06-14T00:11:25;10.03;;;9.07;;
9720;SDS011;4899;42.644;23.366;2023-06-14T00:13:52;10.13;;;9.07;;
9720;SDS011;4899;42.644;23.366;2023-06-14T00:16:17;8.80;;;8.00;;
9720;SDS011;4899;42.644;23.366;2023-06-14T00:18:44;10.03;;;9.03;;
9720;SDS011;4899;42.644;23.366;2023-06-14T00:21:10;9.90;;;8.90;;
9720;SDS011;4899;42.644;23.366;2023-06-14T00:23:37;10.07;;;9.07;;
9720;SDS011;4899;42.644;23.366;2023-06-14T00:26:02;8.37;;;7.57;;
9720;SDS011;4899;42.644;23.366;2023-06-14T00:28:28;9.33;;;8.50;;
9720;SDS011;4899;42.644;23.366;2023-06-14T00:30:53;8.13;;;7.33;;
9720;SDS011;4899;42.644;23.366;2023-06-14T00:33:19;8.87;;;8.07;;
9720;SDS011;4899;42.644;23.366;2023-06-14T00:35:45;8.47;;;7.67;;
9720;SDS011;4899;42.644;23.366;2023-06-14T00:38:10;8.57;;;7.73;;
9720;SDS011;4899;42.644;23.366;2023-06-14T00:40:35;8.00;;;7.40;;
9720;SDS011;4899;42.644;23.366;2023-06-14T00:43:01;8.97;;;7.90;;
9720;SDS011;4899;42.644;23.366;2023-06-14T00:45:26;8.97;;;7.80;;
9720;SDS011;4899;42.644;23.366;2023-06-14T00:47:52;8.37;;;7.60;;
9720;SDS011;4899;42.644;23.366;2023-06-14T00:50:20;8.53;;;7.73;;
9720;SDS011;4899;42.644;23.366;2023-06-14T00:52:47;8.20;;;7.50;;
9720;SDS011;4899;42.644;23.366;2023-06-14T00:55:13;7.80;;;7.10;;
9720;SDS011;4899;42.644;23.366;2023-06-14T00:57:38;7.97;;;7.37;;
9720;SDS011;4899;42.644;23.366;2023-06-14T01:00:05;8.97;;;7.83;;
9720;SDS011;4899;42.644;23.366;2023-06-14T01:02:34;7.87;;;7.17;;
9720;SDS011;4899;42.644;23.366;2023-06-14T01:05:04;7.70;;;6.90;;
9720;SDS011;4899;42.644;23.366;2023-06-14T01:13:20;7.07;;;6.47;;
9720;SDS011;4899;42.644;23.366;2023-06-14T01:15:48;7.27;;;6.60;;
9720;SDS011;4899;42.644;23.366;2023-06-14T01:18:16;6.67;;;6.07;;
9720;SDS011;4899;42.644;23.366;2023-06-14T01:20:42;6.63;;;6.03;;
9720;SDS011;4899;42.644;23.366;2023-06-14T01:23:20;7.57;;;6.87;;
9720;SDS011;4899;42.644;23.366;2023-06-14T01:25:47;9.37;;;6.53;;
9720;SDS011;4899;42.644;23.366;2023-06-14T01:28:18;8.40;;;7.57;;
9720;SDS011;4899;42.644;23.366;2023-06-14T01:30:46;7.87;;;6.70;;
9720;SDS011;4899;42.644;23.366;2023-06-14T01:33:19;8.87;;;8.00;;
9720;SDS011;4899;42.644;23.366;2023-06-14T01:35:47;8.17;;;7.47;;
9720;SDS011;4899;42.644;23.366;2023-06-14T01:38:15;10.23;;;9.23;;
9720;SDS011;4899;42.644;23.366;2023-06-14T01:40:43;10.77;;;8.63;;
9720;SDS011;4899;42.644;23.366;2023-06-14T01:43:10;10.23;;;9.27;;
9720;SDS011;4899;42.644;23.366;2023-06-14T01:45:38;10.53;;;9.27;;
9720;SDS011;4899;42.644;23.366;2023-06-14T01:48:05;10.63;;;9.13;;
9720;SDS011;4899;42.644;23.366;2023-06-14T01:50:31;10.53;;;9.47;;
9720;SDS011;4899;42.644;23.366;2023-06-14T01:52:57;9.90;;;9.00;;
9720;SDS011;4899;42.644;23.366;2023-06-14T01:55:23;9.97;;;8.80;;
9720;SDS011;4899;42.644;23.366;2023-06-14T01:57:52;11.20;;;10.00;;
9720;SDS011;4899;42.644;23.366;2023-06-14T02:00:18;9.57;;;8.37;;
9720;SDS011;4899;42.644;23.366;2023-06-14T02:02:44;10.67;;;9.67;;
9720;SDS011;4899;42.644;23.366;2023-06-14T02:05:11;10.13;;;9.27;;
9720;SDS011;4899;42.644;23.366;2023-06-14T02:07:36;9.03;;;8.23;;
9720;SDS011;4899;42.644;23.366;2023-06-14T02:10:03;10.23;;;7.97;;
9720;SDS011;4899;42.644;23.366;2023-06-14T02:12:29;8.57;;;7.77;;
9720;SDS011;4899;42.644;23.366;2023-06-14T02:14:55;9.20;;;7.63;;
9720;SDS011;4899;42.644;23.366;2023-06-14T02:17:21;9.73;;;8.73;;
9720;SDS011;4899;42.644;23.366;2023-06-14T02:19:47;10.20;;;9.20;;
9720;SDS011;4899;42.644;23.366;2023-06-14T02:22:13;10.47;;;9.20;;
9720;SDS011;4899;42.644;23.366;2023-06-14T02:24:40;10.13;;;9.13;;
9720;SDS011;4899;42.644;23.366;2023-06-14T02:27:06;10.03;;;9.03;;
9720;SDS011;4899;42.644;23.366;2023-06-14T02:29:31;9.63;;;8.67;;
9720;SDS011;4899;42.644;23.366;2023-06-14T02:31:57;8.93;;;8.03;;
9720;SDS011;4899;42.644;23.366;2023-06-14T02:34:22;9.63;;;8.30;;
9720;SDS011;4899;42.644;23.366;2023-06-14T02:36:48;9.23;;;8.33;;
9720;SDS011;4899;42.644;23.366;2023-06-14T02:39:14;11.33;;;8.97;;
9720;SDS011;4899;42.644;23.366;2023-06-14T02:41:40;9.10;;;8.30;;
9720;SDS011;4899;42.644;23.366;2023-06-14T02:44:06;9.30;;;8.40;;
9720;SDS011;4899;42.644;23.366;2023-06-14T02:46:31;8.90;;;8.00;;
9720;SDS011;4899;42.644;23.366;2023-06-14T02:48:57;9.77;;;8.30;;
9720;SDS011;4899;42.644;23.366;2023-06-14T02:51:22;10.57;;;8.03;;
9720;SDS011;4899;42.644;23.366;2023-06-14T02:53:48;9.53;;;7.43;;
9720;SDS011;4899;42.644;23.366;2023-06-14T02:56:13;8.73;;;7.07;;
9720;SDS011;4899;42.644;23.366;2023-06-14T02:58:39;7.83;;;7.23;;
9720;SDS011;4899;42.644;23.366;2023-06-14T03:01:05;8.20;;;7.10;;
9720;SDS011;4899;42.644;23.366;2023-06-14T03:03:32;8.33;;;7.53;;
9720;SDS011;4899;42.644;23.366;2023-06-14T03:05:58;8.43;;;7.70;;
9720;SDS011;4899;42.644;23.366;2023-06-14T03:08:30;8.07;;;7.33;;
9720;SDS011;4899;42.644;23.366;2023-06-14T03:10:56;8.23;;;7.53;;
9720;SDS011;4899;42.644;23.366;2023-06-14T03:13:22;8.23;;;7.50;;
9720;SDS011;4899;42.644;23.366;2023-06-14T03:15:48;9.00;;;7.30;;
9720;SDS011;4899;42.644;23.366;2023-06-14T03:18:16;8.00;;;7.40;;
9720;SDS011;4899;42.644;23.366;2023-06-14T03:20:41;8.33;;;7.63;;
9720;SDS011;4899;42.644;23.366;2023-06-14T03:23:07;8.67;;;7.87;;
9720;SDS011;4899;42.644;23.366;2023-06-14T03:25:33;7.97;;;7.17;;
9720;SDS011;4899;42.644;23.366;2023-06-14T03:28:01;8.17;;;7.37;;
9720;SDS011;4899;42.644;23.366;2023-06-14T03:30:27;7.77;;;7.17;;
9720;SDS011;4899;42.644;23.366;2023-06-14T03:32:53;8.40;;;7.80;;
9720;SDS011;4899;42.644;23.366;2023-06-14T03:35:20;7.73;;;6.93;;
9720;SDS011;4899;42.644;23.366;2023-06-14T03:37:46;9.47;;;7.60;;
9720;SDS011;4899;42.644;23.366;2023-06-14T03:40:13;7.73;;;7.13;;
9720;SDS011;4899;42.644;23.366;2023-06-14T03:42:41;7.57;;;6.87;;
9720;SDS011;4899;42.644;23.366;2023-06-14T03:45:06;8.47;;;7.50;;
9720;SDS011;4899;42.644;23.366;2023-06-14T03:47:34;8.20;;;7.50;;
9720;SDS011;4899;42.644;23.366;2023-06-14T03:50:00;8.03;;;7.40;;
9720;SDS011;4899;42.644;23.366;2023-06-14T03:52:27;8.23;;;7.43;;
9720;SDS011;4899;42.644;23.366;2023-06-14T03:54:53;8.47;;;7.60;;
9720;SDS011;4899;42.644;23.366;2023-06-14T03:57:19;8.67;;;7.70;;
9720;SDS011;4899;42.644;23.366;2023-06-14T03:59:45;8.93;;;8.10;;
9720;SDS011;4899;42.644;23.366;2023-06-14T04:02:10;8.47;;;7.67;;
9720;SDS011;4899;42.644;23.366;2023-06-14T04:04:36;8.87;;;8.07;;
9720;SDS011;4899;42.644;23.366;2023-06-14T04:07:02;9.53;;;8.20;;
9720;SDS011;4899;42.644;23.366;2023-06-14T04:09:31;8.47;;;7.87;;
9720;SDS011;4899;42.644;23.366;2023-06-14T04:11:57;8.40;;;7.63;;
9720;SDS011;4899;42.644;23.366;2023-06-14T04:14:22;8.97;;;7.17;;
9720;SDS011;4899;42.644;23.366;2023-06-14T04:16:48;9.17;;;7.40;;
9720;SDS011;4899;42.644;23.366;2023-06-14T04:19:14;8.17;;;7.57;;
9720;SDS011;4899;42.644;23.366;2023-06-14T04:21:41;7.90;;;7.17;;
9720;SDS011;4899;42.644;23.366;2023-06-14T04:24:06;8.83;;;8.00;;
9720;SDS011;4899;42.644;23.366;2023-06-14T04:26:39;9.17;;;7.87;;
9720;SDS011;4899;42.644;23.366;2023-06-14T04:29:09;8.70;;;8.00;;
9720;SDS011;4899;42.644;23.366;2023-06-14T04:31:48;11.00;;;8.27;;
9720;SDS011;4899;42.644;23.366;2023-06-14T04:34:14;8.73;;;8.13;;
9720;SDS011;4899;42.644;23.366;2023-06-14T04:36:43;9.10;;;8.27;;
9720;SDS011;4899;42.644;23.366;2023-06-14T04:39:17;8.83;;;7.30;;
9720;SDS011;4899;42.644;23.366;2023-06-14T04:41:43;8.90;;;8.10;;
9720;SDS011;4899;42.644;23.366;2023-06-14T04:44:09;9.07;;;8.33;;
9720;SDS011;4899;42.644;23.366;2023-06-14T04:46:35;8.77;;;7.97;;
9720;SDS011;4899;42.644;23.366;2023-06-14T04:49:09;10.23;;;7.93;;
9720;SDS011;4899;42.644;23.366;2023-06-14T04:51:35;10.07;;;8.47;;
9720;SDS011;4899;42.644;23.366;2023-06-14T04:54:02;9.50;;;8.70;;
9720;SDS011;4899;42.644;23.366;2023-06-14T04:56:28;8.70;;;8.00;;
9720;SDS011;4899;42.644;23.366;2023-06-14T04:58:55;8.97;;;8.20;;
9720;SDS011;4899;42.644;23.366;2023-06-14T05:01:22;9.40;;;8.50;;
9720;SDS011;4899;42.644;23.366;2023-06-14T05:03:48;9.27;;;8.37;;
9720;SDS011;4899;42.644;23.366;2023-06-14T05:06:14;13.17;;;8.13;;
9720;SDS011;4899;42.644;23.366;2023-06-14T05:08:41;11.10;;;10.00;;
9720;SDS011;4899;42.644;23.366;2023-06-14T05:11:06;10.97;;;9.87;;
9720;SDS011;4899;42.644;23.366;2023-06-14T05:13:32;11.00;;;9.53;;
9720;SDS011;4899;42.644;23.366;2023-06-14T05:15:58;11.83;;;9.50;;
9720;SDS011;4899;42.644;23.366;2023-06-14T05:18:24;12.17;;;11.00;;
9720;SDS011;4899;42.644;23.366;2023-06-14T05:20:50;11.83;;;10.63;;
9720;SDS011;4899;42.644;23.366;2023-06-14T05:23:16;19.73;;;17.67;;
9720;SDS011;4899;42.644;23.366;2023-06-14T05:25:45;21.40;;;19.17;;
9720;SDS011;4899;42.644;23.366;2023-06-14T05:28:11;21.83;;;19.77;;
9720;SDS011;4899;42.644;23.366;2023-06-14T05:30:37;22.40;;;20.00;;
9720;SDS011;4899;42.644;23.366;2023-06-14T05:33:04;23.57;;;21.17;;
9720;SDS011;4899;42.644;23.366;2023-06-14T05:35:30;22.43;;;18.23;;
9720;SDS011;4899;42.644;23.366;2023-06-14T05:37:55;16.90;;;15.23;;
9720;SDS011;4899;42.644;23.366;2023-06-14T05:40:21;15.60;;;14.10;;
9720;SDS011;4899;42.644;23.366;2023-06-14T05:42:47;16.30;;;14.67;;
9720;SDS011;4899;42.644;23.366;2023-06-14T05:45:12;16.30;;;14.67;;
9720;SDS011;4899;42.644;23.366;2023-06-14T05:47:39;14.57;;;13.07;;
9720;SDS011;4899;42.644;23.366;2023-06-14T05:50:04;14.87;;;13.37;;
9720;SDS011;4899;42.644;23.366;2023-06-14T05:52:30;13.37;;;12.27;;
9720;SDS011;4899;42.644;23.366;2023-06-14T05:54:56;13.73;;;12.43;;
9720;SDS011;4899;42.644;23.366;2023-06-14T05:57:22;13.30;;;12.10;;
9720;SDS011;4899;42.644;23.366;2023-06-14T05:59:47;13.73;;;12.33;;
9720;SDS011;4899;42.644;23.366;2023-06-14T06:02:12;14.13;;;12.70;;
9720;SDS011;4899;42.644;23.366;2023-06-14T06:04:38;14.90;;;13.47;;
9720;SDS011;4899;42.644;23.366;2023-06-14T06:07:03;19.33;;;17.47;;
9720;SDS011;4899;42.644;23.366;2023-06-14T06:09:30;15.50;;;14.13;;
9720;SDS011;4899;42.644;23.366;2023-06-14T06:11:55;15.73;;;14.20;;
9720;SDS011;4899;42.644;23.366;2023-06-14T06:14:21;15.20;;;13.57;;
9720;SDS011;4899;42.644;23.366;2023-06-14T06:16:46;15.43;;;13.97;;
9720;SDS011;4899;42.644;23.366;2023-06-14T06:19:12;14.77;;;13.37;;
9720;SDS011;4899;42.644;23.366;2023-06-14T06:21:37;15.43;;;13.07;;
9720;SDS011;4899;42.644;23.366;2023-06-14T06:24:04;15.80;;;14.30;;
9720;SDS011;4899;42.644;23.366;2023-06-14T06:26:30;15.00;;;13.30;;
9720;SDS011;4899;42.644;23.366;2023-06-14T06:28:57;14.13;;;12.93;;
9720;SDS011;4899;42.644;23.366;2023-06-14T06:31:23;14.80;;;13.23;;
9720;SDS011;4899;42.644;23.366;2023-06-14T06:33:49;14.73;;;13.23;;
9720;SDS011;4899;42.644;23.366;2023-06-14T06:36:14;18.33;;;16.37;;
9720;SDS011;4899;42.644;23.366;2023-06-14T06:38:40;16.33;;;13.70;;
9720;SDS011;4899;42.644;23.366;2023-06-14T06:41:05;15.03;;;13.53;;
9720;SDS011;4899;42.644;23.366;2023-06-14T06:43:31;14.87;;;13.47;;
9720;SDS011;4899;42.644;23.366;2023-06-14T06:45:56;16.40;;;14.90;;
9720;SDS011;4899;42.644;23.366;2023-06-14T06:48:22;16.33;;;14.73;;
9720;SDS011;4899;42.644;23.366;2023-06-14T06:50:47;16.57;;;14.90;;
9720;SDS011;4899;42.644;23.366;2023-06-14T06:53:12;16.13;;;14.63;;
9720;SDS011;4899;42.644;23.366;2023-06-14T06:55:38;15.60;;;14.00;;
9720;SDS011;4899;42.644;23.366;2023-06-14T06:58:03;16.30;;;14.70;;
9720;SDS011;4899;42.644;23.366;2023-06-14T07:00:30;14.80;;;13.30;;
9720;SDS011;4899;42.644;23.366;2023-06-14T07:02:56;14.90;;;13.40;;
9720;SDS011;4899;42.644;23.366;2023-06-14T07:05:22;16.03;;;13.93;;
9720;SDS011;4899;42.644;23.366;2023-06-14T07:07:47;14.10;;;12.80;;
9720;SDS011;4899;42.644;23.366;2023-06-14T07:10:13;14.00;;;12.73;;
9720;SDS011;4899;42.644;23.366;2023-06-14T07:12:38;15.37;;;13.47;;
9720;SDS011;4899;42.644;23.366;2023-06-14T07:15:07;14.97;;;13.63;;
9720;SDS011;4899;42.644;23.366;2023-06-14T07:17:33;15.97;;;14.57;;
9720;SDS011;4899;42.644;23.366;2023-06-14T07:19:59;16.97;;;15.27;;
9720;SDS011;4899;42.644;23.366;2023-06-14T07:22:25;16.47;;;14.73;;
9720;SDS011;4899;42.644;23.366;2023-06-14T07:24:51;17.23;;;15.23;;
9720;SDS011;4899;42.644;23.366;2023-06-14T07:27:16;16.93;;;15.23;;
9720;SDS011;4899;42.644;23.366;2023-06-14T07:29:42;17.30;;;15.67;;
9720;SDS011;4899;42.644;23.366;2023-06-14T07:32:07;16.33;;;14.73;;
9720;SDS011;4899;42.644;23.366;2023-06-14T07:34:33;17.60;;;15.90;;
9720;SDS011;4899;42.644;23.366;2023-06-14T07:36:58;16.97;;;15.40;;
9720;SDS011;4899;42.644;23.366;2023-06-14T07:39:24;19.33;;;17.53;;
9720;SDS011;4899;42.644;23.366;2023-06-14T07:41:50;17.03;;;15.43;;
9720;SDS011;4899;42.644;23.366;2023-06-14T07:44:15;17.50;;;15.87;;
9720;SDS011;4899;42.644;23.366;2023-06-14T07:46:41;19.40;;;17.43;;
9720;SDS011;4899;42.644;23.366;2023-06-14T07:49:07;15.87;;;14.47;;
9720;SDS011;4899;42.644;23.366;2023-06-14T07:51:32;14.47;;;13.00;;
9720;SDS011;4899;42.644;23.366;2023-06-14T07:53:59;15.67;;;14.33;;
9720;SDS011;4899;42.644;23.366;2023-06-14T07:56:25;15.87;;;14.33;;
9720;SDS011;4899;42.644;23.366;2023-06-14T07:58:51;15.07;;;13.53;;
9720;SDS011;4899;42.644;23.366;2023-06-14T08:01:17;15.23;;;13.83;;
9720;SDS011;4899;42.644;23.366;2023-06-14T08:03:42;15.23;;;13.80;;
9720;SDS011;4899;42.644;23.366;2023-06-14T08:06:08;16.37;;;14.97;;
9720;SDS011;4899;42.644;23.366;2023-06-14T08:08:33;14.83;;;13.57;;
9720;SDS011;4899;42.644;23.366;2023-06-14T08:10:59;14.43;;;13.10;;
9720;SDS011;4899;42.644;23.366;2023-06-14T08:13:24;13.67;;;11.80;;
9720;SDS011;4899;42.644;23.366;2023-06-14T08:15:50;15.03;;;13.70;;
9720;SDS011;4899;42.644;23.366;2023-06-14T08:18:16;14.50;;;13.03;;
9720;SDS011;4899;42.644;23.366;2023-06-14T08:20:41;13.83;;;12.60;;
9720;SDS011;4899;42.644;23.366;2023-06-14T08:23:06;13.10;;;11.90;;
9720;SDS011;4899;42.644;23.366;2023-06-14T08:25:33;14.50;;;13.17;;
9720;SDS011;4899;42.644;23.366;2023-06-14T08:27:58;13.53;;;12.33;;
9720;SDS011;4899;42.644;23.366;2023-06-14T08:30:24;14.03;;;12.87;;
9720;SDS011;4899;42.644;23.366;2023-06-14T08:32:50;13.80;;;12.60;;
9720;SDS011;4899;42.644;23.366;2023-06-14T08:35:16;13.30;;;11.93;;
9720;SDS011;4899;42.644;23.366;2023-06-14T08:37:43;15.00;;;13.80;;
9720;SDS011;4899;42.644;23.366;2023-06-14T08:40:30;13.77;;;12.43;;
9720;SDS011;4899;42.644;23.366;2023-06-14T08:42:55;13.13;;;11.93;;
9720;SDS011;4899;42.644;23.366;2023-06-14T08:45:21;13.10;;;12.07;;
9720;SDS011;4899;42.644;23.366;2023-06-14T08:47:47;13.47;;;12.20;;
9720;SDS011;4899;42.644;23.366;2023-06-14T08:50:23;12.87;;;11.77;;
9720;SDS011;4899;42.644;23.366;2023-06-14T08:52:51;11.70;;;10.80;;
9720;SDS011;4899;42.644;23.366;2023-06-14T08:55:20;13.13;;;11.83;;
9720;SDS011;4899;42.644;23.366;2023-06-14T08:57:52;12.03;;;10.93;;
9720;SDS011;4899;42.644;23.366;2023-06-14T09:00:19;11.40;;;10.50;;
9720;SDS011;4899;42.644;23.366;2023-06-14T09:02:46;11.57;;;10.57;;
9720;SDS011;4899;42.644;23.366;2023-06-14T09:05:12;10.93;;;10.07;;
9720;SDS011;4899;42.644;23.366;2023-06-14T09:07:41;12.00;;;10.30;;
9720;SDS011;4899;42.644;23.366;2023-06-14T09:10:13;12.10;;;10.83;;
9720;SDS011;4899;42.644;23.366;2023-06-14T09:12:40;11.20;;;10.30;;
9720;SDS011;4899;42.644;23.366;2023-06-14T09:15:06;11.23;;;10.13;;
9720;SDS011;4899;42.644;23.366;2023-06-14T09:17:33;11.75;;;10.68;;
9720;SDS011;4899;42.644;23.366;2023-06-14T09:20:01;11.32;;;10.23;;
9720;SDS011;4899;42.644;23.366;2023-06-14T09:22:30;13.65;;;12.38;;
9720;SDS011;4899;42.644;23.366;2023-06-14T09:24:56;12.10;;;11.07;;
9720;SDS011;4899;42.644;23.366;2023-06-14T09:27:21;12.23;;;11.07;;
9720;SDS011;4899;42.644;23.366;2023-06-14T09:29:46;12.77;;;11.60;;
9720;SDS011;4899;42.644;23.366;2023-06-14T09:32:12;13.17;;;12.07;;
9720;SDS011;4899;42.644;23.366;2023-06-14T09:34:37;12.77;;;11.68;;
9720;SDS011;4899;42.644;23.366;2023-06-14T09:37:03;13.67;;;12.47;;
9720;SDS011;4899;42.644;23.366;2023-06-14T09:39:29;12.37;;;11.27;;
9720;SDS011;4899;42.644;23.366;2023-06-14T09:41:55;11.50;;;10.50;;
9720;SDS011;4899;42.644;23.366;2023-06-14T09:44:20;12.03;;;10.93;;
9720;SDS011;4899;42.644;23.366;2023-06-14T09:46:47;12.10;;;11.00;;
9720;SDS011;4899;42.644;23.366;2023-06-14T09:49:13;12.70;;;11.70;;
9720;SDS011;4899;42.644;23.366;2023-06-14T09:51:45;12.82;;;11.80;;
9720;SDS011;4899;42.644;23.366;2023-06-14T09:54:15;12.90;;;11.60;;
9720;SDS011;4899;42.644;23.366;2023-06-14T09:56:45;12.70;;;11.70;;
9720;SDS011;4899;42.644;23.366;2023-06-14T09:59:12;13.80;;;12.60;;
9720;SDS011;4899;42.644;23.366;2023-06-14T10:01:41;12.40;;;11.50;;
9720;SDS011;4899;42.644;23.366;2023-06-14T10:04:08;12.77;;;11.47;;
9720;SDS011;4899;42.644;23.366;2023-06-14T10:06:36;11.07;;;10.27;;
9720;SDS011;4899;42.644;23.366;2023-06-14T10:09:04;12.90;;;11.70;;
9720;SDS011;4899;42.644;23.366;2023-06-14T10:11:35;14.25;;;13.00;;
9720;SDS011;4899;42.644;23.366;2023-06-14T10:14:02;11.10;;;9.97;;
9720;SDS011;4899;42.644;23.366;2023-06-14T10:19:32;11.88;;;10.98;;
9720;SDS011;4899;42.644;23.366;2023-06-14T10:22:09;11.80;;;10.70;;
9720;SDS011;4899;42.644;23.366;2023-06-14T10:24:44;11.30;;;10.33;;
9720;SDS011;4899;42.644;23.366;2023-06-14T10:27:13;10.52;;;9.48;;
9720;SDS011;4899;42.644;23.366;2023-06-14T10:32:24;10.82;;;9.77;;
9720;SDS011;4899;42.644;23.366;2023-06-14T10:34:54;10.73;;;9.65;;
9720;SDS011;4899;42.644;23.366;2023-06-14T10:37:21;11.52;;;10.55;;
9720;SDS011;4899;42.644;23.366;2023-06-14T10:39:46;11.98;;;10.75;;
9720;SDS011;4899;42.644;23.366;2023-06-14T10:42:12;10.73;;;9.73;;
9720;SDS011;4899;42.644;23.366;2023-06-14T10:44:39;10.50;;;9.60;;
9720;SDS011;4899;42.644;23.366;2023-06-14T10:49:57;9.32;;;8.68;;
9720;SDS011;4899;42.644;23.366;2023-06-14T10:52:28;9.50;;;8.32;;
9720;SDS011;4899;42.644;23.366;2023-06-14T10:57:46;9.23;;;8.38;;
9720;SDS011;4899;42.644;23.366;2023-06-14T11:00:20;9.57;;;8.15;;
9720;SDS011;4899;42.644;23.366;2023-06-14T11:11:01;8.52;;;7.78;;
9720;SDS011;4899;42.644;23.366;2023-06-14T11:13:31;7.93;;;7.25;;
9720;SDS011;4899;42.644;23.366;2023-06-14T11:15:57;8.07;;;7.38;;
9720;SDS011;4899;42.644;23.366;2023-06-14T11:18:23;8.23;;;7.43;;
9720;SDS011;4899;42.644;23.366;2023-06-14T11:20:50;7.75;;;7.15;;
9720;SDS011;4899;42.644;23.366;2023-06-14T11:23:15;8.68;;;7.47;;
9720;SDS011;4899;42.644;23.366;2023-06-14T11:25:41;8.15;;;7.50;;
9720;SDS011;4899;42.644;23.366;2023-06-14T11:28:06;7.25;;;6.65;;
9720;SDS011;4899;42.644;23.366;2023-06-14T11:30:32;7.60;;;7.00;;
9720;SDS011;4899;42.644;23.366;2023-06-14T11:32:57;6.40;;;5.90;;
9720;SDS011;4899;42.644;23.366;2023-06-14T11:35:23;6.60;;;6.20;;
9720;SDS011;4899;42.644;23.366;2023-06-14T11:37:56;8.30;;;7.05;;
9720;SDS011;4899;42.644;23.366;2023-06-14T11:40:25;6.82;;;6.40;;
9720;SDS011;4899;42.644;23.366;2023-06-14T11:42:57;6.63;;;6.13;;
9720;SDS011;4899;42.644;23.366;2023-06-14T11:45:26;5.95;;;5.60;;
9720;SDS011;4899;42.644;23.366;2023-06-14T11:47:54;7.72;;;7.03;;
9720;SDS011;4899;42.644;23.366;2023-06-14T11:50:23;6.53;;;6.05;;
9720;SDS011;4899;42.644;23.366;2023-06-14T11:52:56;6.28;;;5.78;;
9720;SDS011;4899;42.644;23.366;2023-06-14T11:55:25;6.25;;;5.75;;
9720;SDS011;4899;42.644;23.366;2023-06-14T11:57:50;6.35;;;5.85;;
9720;SDS011;4899;42.644;23.366;2023-06-14T12:00:18;6.63;;;6.13;;
9720;SDS011;4899;42.644;23.366;2023-06-14T12:02:56;5.95;;;5.53;;
9720;SDS011;4899;42.644;23.366;2023-06-14T12:05:21;6.25;;;5.80;;
9720;SDS011;4899;42.644;23.366;2023-06-14T12:07:48;7.05;;;6.55;;
9720;SDS011;4899;42.644;23.366;2023-06-14T12:10:15;6.35;;;5.95;;
9720;SDS011;4899;42.644;23.366;2023-06-14T12:12:41;6.20;;;5.72;;
9720;SDS011;4899;42.644;23.366;2023-06-14T12:15:08;5.70;;;5.20;;
9720;SDS011;4899;42.644;23.366;2023-06-14T12:17:34;5.72;;;5.32;;
9720;SDS011;4899;42.644;23.366;2023-06-14T12:20:13;5.57;;;5.20;;
9720;SDS011;4899;42.644;23.366;2023-06-14T12:22:53;6.40;;;5.82;;
9720;SDS011;4899;42.644;23.366;2023-06-14T12:25:27;6.00;;;5.50;;
9720;SDS011;4899;42.644;23.366;2023-06-14T12:27:56;6.40;;;5.75;;
9720;SDS011;4899;42.644;23.366;2023-06-14T12:30:22;6.45;;;6.03;;
9720;SDS011;4899;42.644;23.366;2023-06-14T12:32:47;6.45;;;5.90;;
9720;SDS011;4899;42.644;23.366;2023-06-14T12:35:13;5.80;;;5.40;;
9720;SDS011;4899;42.644;23.366;2023-06-14T12:37:39;7.05;;;6.38;;
9720;SDS011;4899;42.644;23.366;2023-06-14T12:40:04;6.47;;;5.97;;
9720;SDS011;4899;42.644;23.366;2023-06-14T12:42:31;6.55;;;6.05;;
9720;SDS011;4899;42.644;23.366;2023-06-14T12:44:56;6.68;;;6.15;;
9720;SDS011;4899;42.644;23.366;2023-06-14T12:47:22;6.50;;;5.97;;
9720;SDS011;4899;42.644;23.366;2023-06-14T12:49:47;7.70;;;6.10;;
9720;SDS011;4899;42.644;23.366;2023-06-14T12:52:13;6.28;;;5.68;;
9720;SDS011;4899;42.644;23.366;2023-06-14T12:54:38;6.10;;;5.70;;
9720;SDS011;4899;42.644;23.366;2023-06-14T12:57:05;6.15;;;5.75;;
9720;SDS011;4899;42.644;23.366;2023-06-14T12:59:31;5.47;;;5.00;;
9720;SDS011;4899;42.644;23.366;2023-06-14T13:02:19;6.93;;;6.20;;
9720;SDS011;4899;42.644;23.366;2023-06-14T13:04:47;6.10;;;5.70;;
9720;SDS011;4899;42.644;23.366;2023-06-14T13:07:12;6.75;;;6.15;;
9720;SDS011;4899;42.644;23.366;2023-06-14T13:09:39;7.40;;;6.80;;
9720;SDS011;4899;42.644;23.366;2023-06-14T13:12:06;7.60;;;7.00;;
9720;SDS011;4899;42.644;23.366;2023-06-14T13:14:32;9.25;;;6.85;;
9720;SDS011;4899;42.644;23.366;2023-06-14T13:16:57;7.10;;;6.57;;
9720;SDS011;4899;42.644;23.366;2023-06-14T13:19:23;7.47;;;6.77;;
9720;SDS011;4899;42.644;23.366;2023-06-14T13:21:48;7.30;;;6.23;;
9720;SDS011;4899;42.644;23.366;2023-06-14T13:24:14;9.80;;;7.77;;
9720;SDS011;4899;42.644;23.366;2023-06-14T13:26:40;16.53;;;8.87;;
9720;SDS011;4899;42.644;23.366;2023-06-14T13:29:05;8.10;;;7.50;;
9720;SDS011;4899;42.644;23.366;2023-06-14T13:31:31;8.67;;;7.90;;
9720;SDS011;4899;42.644;23.366;2023-06-14T13:33:56;10.43;;;9.47;;
9720;SDS011;4899;42.644;23.366;2023-06-14T13:36:22;11.37;;;10.10;;
9720;SDS011;4899;42.644;23.366;2023-06-14T13:38:47;11.77;;;10.57;;
9720;SDS011;4899;42.644;23.366;2023-06-14T13:41:13;12.47;;;11.37;;
9720;SDS011;4899;42.644;23.366;2023-06-14T13:43:38;14.73;;;11.30;;
9720;SDS011;4899;42.644;23.366;2023-06-14T13:46:04;14.33;;;11.23;;
9720;SDS011;4899;42.644;23.366;2023-06-14T13:48:30;10.63;;;9.67;;
9720;SDS011;4899;42.644;23.366;2023-06-14T13:50:55;10.83;;;9.83;;
9720;SDS011;4899;42.644;23.366;2023-06-14T13:53:21;10.90;;;9.90;;
9720;SDS011;4899;42.644;23.366;2023-06-14T13:55:47;9.87;;;9.07;;
9720;SDS011;4899;42.644;23.366;2023-06-14T13:58:12;10.13;;;9.23;;
9720;SDS011;4899;42.644;23.366;2023-06-14T14:00:39;9.80;;;8.87;;
9720;SDS011;4899;42.644;23.366;2023-06-14T14:03:05;10.73;;;9.83;;
9720;SDS011;4899;42.644;23.366;2023-06-14T14:05:31;9.77;;;8.77;;
9720;SDS011;4899;42.644;23.366;2023-06-14T14:07:57;9.30;;;8.50;;
9720;SDS011;4899;42.644;23.366;2023-06-14T14:10:24;9.57;;;8.73;;
9720;SDS011;4899;42.644;23.366;2023-06-14T14:12:50;10.77;;;9.03;;
9720;SDS011;4899;42.644;23.366;2023-06-14T14:15:16;7.63;;;6.93;;
9720;SDS011;4899;42.644;23.366;2023-06-14T14:17:42;8.57;;;7.50;;
9720;SDS011;4899;42.644;23.366;2023-06-14T14:20:08;8.37;;;7.67;;
9720;SDS011;4899;42.644;23.366;2023-06-14T14:22:34;7.77;;;6.97;;
9720;SDS011;4899;42.644;23.366;2023-06-14T14:25:00;7.60;;;7.00;;
9720;SDS011;4899;42.644;23.366;2023-06-14T14:27:25;8.43;;;7.63;;
9720;SDS011;4899;42.644;23.366;2023-06-14T14:29:51;8.23;;;7.43;;
9720;SDS011;4899;42.644;23.366;2023-06-14T14:32:16;8.77;;;7.83;;
9720;SDS011;4899;42.644;23.366;2023-06-14T14:34:41;9.57;;;8.37;;
9720;SDS011;4899;42.644;23.366;2023-06-14T14:37:07;9.83;;;8.60;;
9720;SDS011;4899;42.644;23.366;2023-06-14T14:39:32;9.13;;;8.33;;
9720;SDS011;4899;42.644;23.366;2023-06-14T14:41:58;9.30;;;8.53;;
9720;SDS011;4899;42.644;23.366;2023-06-14T14:44:23;19.73;;;12.80;;
9720;SDS011;4899;42.644;23.366;2023-06-14T14:46:49;13.50;;;12.13;;
9720;SDS011;4899;42.644;23.366;2023-06-14T14:49:14;16.10;;;9.93;;
9720;SDS011;4899;42.644;23.366;2023-06-14T14:51:40;10.57;;;9.23;;
9720;SDS011;4899;42.644;23.366;2023-06-14T14:54:05;11.90;;;10.67;;
9720;SDS011;4899;42.644;23.366;2023-06-14T14:56:31;14.40;;;12.90;;
9720;SDS011;4899;42.644;23.366;2023-06-14T14:58:58;10.90;;;9.90;;
9720;SDS011;4899;42.644;23.366;2023-06-14T15:01:23;11.73;;;10.53;;
9720;SDS011;4899;42.644;23.366;2023-06-14T15:03:49;15.77;;;11.70;;
9720;SDS011;4899;42.644;23.366;2023-06-14T15:06:14;13.13;;;10.83;;
9720;SDS011;4899;42.644;23.366;2023-06-14T15:08:39;11.93;;;10.83;;
9720;SDS011;4899;42.644;23.366;2023-06-14T15:11:05;11.60;;;10.60;;